Time;durP1;ratioP1;P1;durP2;ratioP2;P2;SDS_P1;SDS_P2;PMS_P1;PMS_P2;Temp;Humidity;BMP_temperature;BMP_pressure;BME280_temperature;BME280_humidity;BME280_pressure;Samples;Min_cycle;Max_cycle;Signal;HPM_P1;HPM_P2
2022/10/23 00:01:50;;;;;;;10.45;4.28;;;;;;;14.11;100.00;100927.41;4971541;28;20583;-64
2022/10/23 00:04:20;;;;;;;9.32;3.83;;;;;;;14.14;100.00;100929.00;4971444;28;20149;-64
2022/10/23 00:06:48;;;;;;;11.23;3.85;;;;;;;14.07;100.00;100923.28;4966339;28;20047;-64
2022/10/23 00:09:19;;;;;;;7.80;4.07;;;;;;;14.05;100.00;100925.19;4972540;28;20070;-64
2022/10/23 00:11:46;;;;;;;9.13;3.70;;;;;;;13.98;100.00;100936.31;4966252;28;20130;-64
2022/10/23 00:14:14;;;;;;;8.32;3.60;;;;;;;13.98;100.00;100931.84;4973728;28;20600;-64
2022/10/23 00:16:42;;;;;;;10.30;3.92;;;;;;;13.97;100.00;100934.63;4971787;28;20616;-64
2022/10/23 00:19:09;;;;;;;7.88;4.20;;;;;;;13.95;100.00;100937.34;4969170;28;20527;-63
2022/10/23 00:21:36;;;;;;;12.13;4.25;;;;;;;13.95;100.00;100934.69;4973155;28;20138;-64
2022/10/23 00:24:04;;;;;;;9.02;3.97;;;;;;;13.99;100.00;100943.28;4972974;28;20173;-64
2022/10/23 00:26:31;;;;;;;10.18;4.15;;;;;;;14.00;100.00;100942.31;4968032;28;20419;-64
2022/10/23 00:28:58;;;;;;;10.32;4.15;;;;;;;13.89;100.00;100948.34;4968519;28;20479;-64
2022/10/23 00:31:25;;;;;;;9.27;4.82;;;;;;;13.82;100.00;100947.91;4973340;28;20159;-65
2022/10/23 00:33:52;;;;;;;7.75;4.47;;;;;;;13.74;100.00;100958.19;4971296;28;20452;-66
2022/10/23 00:36:20;;;;;;;10.07;3.97;;;;;;;13.71;100.00;100953.09;4970949;28;20050;-64
2022/10/23 00:38:48;;;;;;;9.98;4.57;;;;;;;13.73;100.00;100960.91;4970506;28;20139;-63
2022/10/23 00:41:24;;;;;;;10.35;4.72;;;;;;;13.75;100.00;100951.09;4969395;28;20065;-63
2022/10/23 00:44:29;;;;;;;8.68;4.80;;;;;;;13.68;100.00;100951.47;4952610;28;20110;-64
2022/10/23 00:46:58;;;;;;;13.32;3.60;;;;;;;13.71;100.00;100955.72;4971016;28;20154;-64
2022/10/23 00:49:26;;;;;;;10.85;4.65;;;;;;;13.74;100.00;100954.69;4969255;28;20047;-62
2022/10/23 00:52:00;;;;;;;9.65;4.18;;;;;;;13.70;100.00;100951.41;4953145;28;20047;-64
2022/10/23 00:54:32;;;;;;;8.98;4.00;;;;;;;13.70;100.00;100954.03;4970257;28;20050;-65
2022/10/23 00:57:04;;;;;;;10.02;4.40;;;;;;;13.69;100.00;100955.00;4961659;28;20409;-64
2022/10/23 00:59:32;;;;;;;7.47;4.22;;;;;;;13.69;100.00;100952.34;4968409;28;20061;-64
2022/10/23 01:01:59;;;;;;;11.75;4.57;;;;;;;13.68;100.00;100953.28;4969164;28;20055;-64
2022/10/23 01:04:27;;;;;;;11.95;4.60;;;;;;;13.65;100.00;100958.81;4965442;28;20941;-64
2022/10/23 01:06:58;;;;;;;9.50;4.40;;;;;;;13.65;100.00;100957.00;4969945;28;20134;-64
2022/10/23 01:09:33;;;;;;;11.10;4.13;;;;;;;13.67;100.00;100957.72;4962332;28;20518;-64
2022/10/23 01:12:08;;;;;;;9.80;4.10;;;;;;;13.68;100.00;100961.22;4985788;28;20518;-64
2022/10/23 01:14:48;;;;;;;7.22;3.25;;;;;;;13.68;100.00;100962.06;4971013;28;20575;-64
2022/10/23 01:17:24;;;;;;;9.98;3.70;;;;;;;13.68;100.00;100951.47;4984667;28;20133;-64
2022/10/23 01:20:40;;;;;;;12.82;4.40;;;;;;;13.72;100.00;100952.13;4969324;28;20063;-64
2022/10/23 01:23:35;;;;;;;9.02;4.22;;;;;;;13.74;100.00;100955.53;4957225;28;20078;-63
2022/10/23 01:26:14;;;;;;;8.18;3.47;;;;;;;13.77;100.00;100952.66;4965898;28;20137;-66
2022/10/23 01:28:50;;;;;;;7.28;3.67;;;;;;;13.81;100.00;100956.81;4969790;28;20134;-65
2022/10/23 01:31:23;;;;;;;8.40;4.03;;;;;;;13.78;100.00;100951.75;4952490;28;20069;-63
2022/10/23 01:33:56;;;;;;;9.60;3.42;;;;;;;13.75;100.00;100954.59;4968359;28;20054;-64
2022/10/23 01:36:25;;;;;;;7.53;3.95;;;;;;;13.70;100.00;100954.03;4971117;28;20047;-64
2022/10/23 01:38:56;;;;;;;8.10;3.65;;;;;;;13.68;100.00;100955.94;4965270;28;20051;-65
2022/10/23 01:41:45;;;;;;;6.95;3.72;;;;;;;13.66;100.00;100958.69;4961436;28;20427;-64
2022/10/23 01:44:19;;;;;;;10.88;3.80;;;;;;;13.64;100.00;100957.94;4969369;28;20043;-65
2022/10/23 01:46:48;;;;;;;9.23;4.20;;;;;;;13.64;100.00;100965.88;4965195;28;20504;-64
2022/10/23 01:49:16;;;;;;;6.07;4.00;;;;;;;13.66;100.00;100966.63;4985348;28;20043;-64
2022/10/23 01:51:47;;;;;;;8.63;4.47;;;;;;;13.66;100.00;100965.78;4970617;28;20061;-64
2022/10/23 01:54:16;;;;;;;9.35;4.22;;;;;;;13.61;100.00;100968.72;4969694;28;20047;-64
2022/10/23 01:56:45;;;;;;;8.30;4.05;;;;;;;13.61;100.00;100960.78;4964635;28;20086;-63
2022/10/23 01:59:18;;;;;;;6.63;4.13;;;;;;;13.65;100.00;100964.94;4970187;28;20525;-64
2022/10/23 02:01:46;;;;;;;11.82;4.80;;;;;;;13.66;100.00;100963.97;4963919;28;20048;-64
2022/10/23 02:04:17;;;;;;;7.80;4.07;;;;;;;13.65;100.00;100957.00;4967260;28;20141;-65
2022/10/23 02:06:44;;;;;;;8.77;4.32;;;;;;;13.64;100.00;100952.66;4982110;28;20511;-64
2022/10/23 02:09:13;;;;;;;10.25;4.65;;;;;;;13.59;100.00;100956.53;4969183;28;20187;-63
2022/10/23 02:11:53;;;;;;;8.10;4.55;;;;;;;13.53;100.00;100952.50;4968963;28;20082;-64
2022/10/23 02:14:35;;;;;;;10.10;4.40;;;;;;;13.50;100.00;100941.28;4964786;28;20077;-64
2022/10/23 02:17:43;;;;;;;11.45;4.72;;;;;;;13.47;100.00;100954.72;4962760;28;20054;-65
2022/10/23 02:20:53;;;;;;;10.05;4.35;;;;;;;13.48;100.00;100951.97;4960984;28;20212;-64
2022/10/23 02:23:23;;;;;;;13.65;4.95;;;;;;;13.51;100.00;100953.53;4959288;28;20096;-64
2022/10/23 02:25:58;;;;;;;9.82;4.60;;;;;;;13.51;100.00;100948.25;4969929;28;20046;-64
2022/10/23 02:28:33;;;;;;;9.30;4.20;;;;;;;13.51;100.00;100948.25;4996827;28;20139;-64
2022/10/23 02:31:01;;;;;;;10.63;5.28;;;;;;;13.49;100.00;100951.00;4970332;28;20118;-62
2022/10/23 02:33:29;;;;;;;13.35;5.55;;;;;;;13.49;100.00;100951.00;4965082;28;20130;-63
2022/10/23 02:35:56;;;;;;;10.50;4.75;;;;;;;13.49;100.00;100947.53;4970176;28;20059;-63
2022/10/23 02:38:41;;;;;;;9.68;4.13;;;;;;;13.52;100.00;100948.19;4966193;28;20129;-63
2022/10/23 02:41:08;;;;;;;8.02;4.60;;;;;;;13.51;100.00;100938.56;4963127;28;20138;-63
2022/10/23 02:43:44;;;;;;;10.73;5.20;;;;;;;13.48;100.00;100949.31;4966073;28;20079;-63
2022/10/23 02:46:28;;;;;;;8.38;4.75;;;;;;;13.45;100.00;100944.22;4970606;28;20396;-63
2022/10/23 02:49:14;;;;;;;5.85;3.92;;;;;;;13.45;100.00;100944.22;4965830;28;20065;-63
2022/10/23 02:52:01;;;;;;;;;;;;;;;13.48;100.00;100946.69;4958750;28;20055;-63
2022/10/23 02:54:48;;;;;;;8.15;5.43;;;;;;;13.44;100.00;100947.81;4948817;28;20008;-63
2022/10/23 02:57:21;;;;;;;8.20;4.57;;;;;;;13.40;100.00;100947.16;4963734;28;20053;-63
2022/10/23 03:00:10;;;;;;;9.75;5.15;;;;;;;13.43;100.00;100944.34;4961404;28;20396;-63
2022/10/23 03:03:20;;;;;;;11.18;5.00;;;;;;;13.45;100.00;100951.31;4965410;28;20043;-63
2022/10/23 03:05:47;;;;;;;7.78;4.40;;;;;;;13.45;99.84;100949.50;4945836;28;20059;-63
2022/10/23 03:08:14;;;;;;;9.75;5.00;;;;;;;13.42;99.77;100941.81;4947126;29;20123;-63
2022/10/23 03:10:42;;;;;;;9.55;4.90;;;;;;;13.43;99.68;100941.69;4954375;28;20062;-63
2022/10/23 03:13:09;;;;;;;7.70;4.57;;;;;;;13.45;99.18;100940.75;4970030;28;20402;-63
2022/10/23 03:15:37;;;;;;;7.85;4.72;;;;;;;13.43;99.12;100940.84;4971799;28;20057;-63
2022/10/23 03:18:04;;;;;;;10.07;4.50;;;;;;;13.43;99.08;100943.50;4965657;28;20133;-63
2022/10/23 03:20:31;;;;;;;8.30;4.95;;;;;;;13.41;99.25;100933.00;4971149;28;20492;-63
2022/10/23 03:22:58;;;;;;;9.32;4.60;;;;;;;13.40;99.07;100943.69;4971144;28;20491;-63
2022/10/23 03:25:25;;;;;;;7.78;4.50;;;;;;;13.40;98.87;100941.88;4967522;28;20047;-63
2022/10/23 03:27:52;;;;;;;9.52;6.00;;;;;;;13.40;98.58;100938.41;4964663;28;20530;-62
2022/10/23 03:30:19;;;;;;;9.55;5.03;;;;;;;13.33;98.59;100935.31;4971042;28;20049;-63
2022/10/23 03:32:46;;;;;;;8.35;4.20;;;;;;;13.32;98.59;100943.34;4972926;28;20055;-62
2022/10/23 03:35:13;;;;;;;8.30;4.88;;;;;;;13.32;98.37;100951.25;4971706;28;20134;-63
2022/10/23 03:37:41;;;;;;;8.45;4.35;;;;;;;13.28;98.93;100945.31;4972724;28;20527;-63
2022/10/23 03:40:09;;;;;;;7.68;5.00;;;;;;;13.25;98.94;100942.91;4968647;28;20051;-63
2022/10/23 03:42:36;;;;;;;10.20;5.63;;;;;;;13.21;99.32;100948.44;4969573;28;20447;-63
2022/10/23 03:45:03;;;;;;;10.98;5.97;;;;;;;13.16;99.28;100944.31;4963691;28;20083;-63
2022/10/23 03:47:33;;;;;;;8.80;5.00;;;;;;;13.13;99.69;100949.78;4967000;28;20070;-63
2022/10/23 03:50:01;;;;;;;12.30;5.20;;;;;;;13.15;99.62;100947.06;4965207;28;20418;-63
2022/10/23 03:52:28;;;;;;;15.48;6.43;;;;;;;13.13;99.53;100944.50;4972958;28;20063;-63
2022/10/23 03:54:55;;;;;;;8.40;5.15;;;;;;;13.11;99.31;100945.56;4965069;28;20050;-63
2022/10/23 03:57:23;;;;;;;9.23;5.97;;;;;;;13.13;99.09;100943.66;4970508;28;20055;-63
2022/10/23 03:59:50;;;;;;;14.48;7.88;;;;;;;13.11;99.04;100948.19;4972918;28;20054;-63
2022/10/23 04:02:17;;;;;;;8.48;5.18;;;;;;;13.07;99.18;100952.00;4972551;28;20406;-63
2022/10/23 04:04:45;;;;;;;11.30;5.38;;;;;;;13.05;99.28;100952.06;4970883;28;20054;-63
2022/10/23 04:07:12;;;;;;;15.85;6.95;;;;;;;12.99;99.77;100955.09;4970658;28;20190;-63
2022/10/23 04:09:39;;;;;;;13.00;7.18;;;;;;;12.93;100.00;100955.50;4972428;28;20058;-63
2022/10/23 04:12:06;;;;;;;9.50;6.57;;;;;;;12.90;100.00;100966.25;4972704;28;20524;-62
2022/10/23 04:14:33;;;;;;;12.50;6.25;;;;;;;12.93;100.00;100961.63;4973561;28;20065;-62
2022/10/23 04:17:00;;;;;;;12.02;6.07;;;;;;;12.95;100.00;100960.69;4972543;28;20136;-63
2022/10/23 04:19:27;;;;;;;11.65;5.70;;;;;;;12.98;99.47;100964.00;4972155;28;20097;-63
2022/10/23 04:21:56;;;;;;;8.13;5.80;;;;;;;12.97;99.45;100954.38;4971580;28;20408;-63
2022/10/23 04:24:24;;;;;;;16.20;7.32;;;;;;;13.00;99.31;100953.31;4962544;28;20049;-63
2022/10/23 04:26:51;;;;;;;12.55;6.40;;;;;;;12.97;99.42;100954.38;4971650;28;20101;-63
2022/10/23 04:29:21;;;;;;;15.20;7.80;;;;;;;12.98;98.85;100955.22;4962482;28;20134;-63
2022/10/23 04:31:48;;;;;;;8.95;5.25;;;;;;;12.97;98.77;100953.50;4970531;28;20369;-63
2022/10/23 04:34:16;;;;;;;9.82;5.38;;;;;;;12.99;98.33;100944.53;4971539;28;20138;-63
2022/10/23 04:36:43;;;;;;;12.38;5.15;;;;;;;13.00;98.11;100933.00;4971648;28;20571;-63
2022/10/23 04:39:11;;;;;;;8.27;5.80;;;;;;;12.97;98.07;100943.81;4971619;28;20559;-63
2022/10/23 04:41:38;;;;;;;7.88;5.00;;;;;;;12.91;97.75;100944.16;4972380;28;20053;-63
2022/10/23 04:44:06;;;;;;;10.23;5.70;;;;;;;12.83;97.94;100949.97;4969361;28;20047;-63
2022/10/23 04:46:33;;;;;;;11.43;6.88;;;;;;;12.76;98.61;100940.72;4967425;28;20112;-63
2022/10/23 04:49:00;;;;;;;13.30;5.75;;;;;;;12.71;98.78;100945.44;4967583;28;20050;-63
2022/10/23 04:51:27;;;;;;;8.73;6.18;;;;;;;12.68;98.85;100950.91;4966208;28;20702;-63
2022/10/23 04:53:54;;;;;;;9.57;5.15;;;;;;;12.67;98.74;100950.06;4966699;28;20137;-63
2022/10/23 04:56:22;;;;;;;11.75;6.72;;;;;;;12.66;98.36;100948.38;4959382;28;20051;-63
2022/10/23 04:58:49;;;;;;;11.98;6.90;;;;;;;12.66;98.60;100948.38;4971697;28;20424;-63
2022/10/23 05:01:16;;;;;;;9.52;6.30;;;;;;;12.56;98.46;100960.47;4963030;28;20158;-63
2022/10/23 05:03:43;;;;;;;11.93;5.65;;;;;;;12.56;98.60;100952.53;4969183;28;20142;-63
2022/10/23 05:06:10;;;;;;;8.93;5.85;;;;;;;12.59;97.95;100965.53;4958668;28;20082;-63
2022/10/23 05:08:37;;;;;;;8.18;5.57;;;;;;;12.63;97.72;100956.47;4965182;28;20484;-63
2022/10/23 05:11:04;;;;;;;11.35;5.60;;;;;;;12.67;97.58;100950.06;4964516;28;20566;-63
2022/10/23 05:13:31;;;;;;;11.25;7.00;;;;;;;12.68;97.54;100949.13;4969095;28;20053;-63
2022/10/23 05:15:59;;;;;;;11.20;7.15;;;;;;;12.70;97.44;100945.53;4965585;28;20050;-63
2022/10/23 05:18:43;;;;;;;9.35;5.93;;;;;;;12.71;97.33;100947.25;4970270;28;20121;-63
2022/10/23 05:21:21;;;;;;;10.73;6.30;;;;;;;12.68;97.20;100953.56;4963264;28;20620;-63
2022/10/23 05:23:48;;;;;;;10.25;6.25;;;;;;;12.65;97.20;100946.69;4971308;28;20054;-63
2022/10/23 05:26:15;;;;;;;10.13;6.32;;;;;;;12.57;97.14;100948.94;4990382;28;20053;-63
2022/10/23 05:28:42;;;;;;;16.05;6.68;;;;;;;12.57;97.47;100950.75;4967340;28;20061;-63
2022/10/23 05:31:09;;;;;;;14.07;7.03;;;;;;;12.54;97.10;100948.28;4966842;28;20066;-64
2022/10/23 05:33:37;;;;;;;11.85;6.18;;;;;;;12.41;97.67;100949.03;4970793;28;20054;-63
2022/10/23 05:36:04;;;;;;;11.05;6.43;;;;;;;12.37;98.07;100959.88;4967559;28;20047;-64
2022/10/23 05:38:33;;;;;;;11.35;6.65;;;;;;;12.37;98.23;100957.22;4971274;28;20456;-63
2022/10/23 05:41:00;;;;;;;11.90;6.63;;;;;;;12.38;97.98;100957.16;4966068;28;20141;-63
2022/10/23 05:43:30;;;;;;;10.60;7.25;;;;;;;12.37;98.11;100963.34;4962448;28;20046;-63
2022/10/23 05:45:57;;;;;;;12.13;7.97;;;;;;;12.35;97.87;100962.63;4965833;28;20101;-63
2022/10/23 05:48:24;;;;;;;9.60;6.85;;;;;;;12.35;97.68;100970.53;4964674;28;20061;-63
2022/10/23 05:51:08;;;;;;;13.43;7.28;;;;;;;12.35;97.46;100962.63;4964275;28;20051;-63
2022/10/23 05:53:35;;;;;;;12.98;7.93;;;;;;;12.36;97.30;100961.66;4959339;28;20051;-63
2022/10/23 05:56:08;;;;;;;13.68;7.85;;;;;;;12.33;97.50;100961.00;4959336;28;20051;-63
2022/10/23 05:58:35;;;;;;;10.98;7.20;;;;;;;12.33;98.18;100975.03;4962241;28;20053;-63
2022/10/23 06:01:10;;;;;;;11.32;7.97;;;;;;;12.32;98.06;100973.34;4969666;28;20057;-63
2022/10/23 06:03:38;;;;;;;16.20;8.93;;;;;;;12.30;98.41;100977.03;4964067;28;20614;-63
2022/10/23 06:06:07;;;;;;;17.10;8.02;;;;;;;12.15;99.53;100970.88;4958233;28;20060;-63
2022/10/23 06:08:35;;;;;;;13.60;7.90;;;;;;;12.13;98.97;100968.34;4967934;28;20047;-63
2022/10/23 06:11:09;;;;;;;15.02;7.93;;;;;;;12.14;98.93;100959.47;4968204;28;20098;-63
2022/10/23 06:13:36;;;;;;;11.93;7.55;;;;;;;12.18;99.11;100960.16;4970430;28;20054;-62
2022/10/23 06:16:13;;;;;;;10.88;7.78;;;;;;;12.23;99.48;100958.06;4956646;28;20050;-63
2022/10/23 06:18:41;;;;;;;12.50;6.53;;;;;;;12.24;99.75;100964.19;4966112;28;20046;-63
2022/10/23 06:21:09;;;;;;;17.98;7.90;;;;;;;12.23;99.18;100957.22;4968043;28;20055;-64
2022/10/23 06:23:37;;;;;;;16.83;7.85;;;;;;;12.14;99.32;100964.75;4961006;28;20580;-63
2022/10/23 06:26:06;;;;;;;9.90;6.93;;;;;;;12.11;99.42;100954.41;4967224;28;20691;-62
2022/10/23 06:28:34;;;;;;;13.13;7.75;;;;;;;12.12;99.34;100965.81;4981464;28;20082;-63
2022/10/23 06:31:05;;;;;;;12.18;7.65;;;;;;;12.14;99.06;100958.63;4963638;28;20058;-63
2022/10/23 06:33:32;;;;;;;11.07;6.85;;;;;;;12.17;99.19;100955.81;4967887;28;20054;-63
2022/10/23 06:35:59;;;;;;;12.15;5.88;;;;;;;12.19;98.91;100953.06;4969222;28;20134;-63
2022/10/23 06:38:26;;;;;;;9.82;6.97;;;;;;;12.20;98.34;100947.69;4968549;28;20387;-63
2022/10/23 06:40:56;;;;;;;19.67;7.20;;;;;;;12.20;98.58;100955.59;4969473;28;21141;-64
2022/10/23 06:43:23;;;;;;;9.10;6.85;;;;;;;12.22;98.15;100951.09;4968798;28;20558;-64
2022/10/23 06:45:50;;;;;;;13.05;8.35;;;;;;;12.21;98.05;100953.84;4966196;28;20120;-64
2022/10/23 06:48:17;;;;;;;10.45;6.93;;;;;;;12.19;97.87;100961.00;4968502;28;20484;-64
2022/10/23 06:50:44;;;;;;;15.23;6.78;;;;;;;12.22;97.86;100968.72;4969108;28;20047;-63
2022/10/23 06:53:11;;;;;;;13.38;7.20;;;;;;;12.26;98.66;100962.34;4966751;28;20054;-63
2022/10/23 06:55:38;;;;;;;11.63;8.23;;;;;;;12.29;99.48;100975.31;4969306;28;20046;-63
2022/10/23 06:58:09;;;;;;;10.60;6.82;;;;;;;12.29;99.39;100975.31;4973553;28;20138;-63
2022/10/23 07:00:37;;;;;;;9.38;7.30;;;;;;;12.30;100.00;100974.41;4973222;28;20061;-63
2022/10/23 07:03:05;;;;;;;15.73;7.75;;;;;;;12.33;100.00;100979.47;4969366;28;20062;-63
2022/10/23 07:05:32;;;;;;;14.55;7.28;;;;;;;12.33;100.00;100982.13;4973562;28;20061;-63
2022/10/23 07:07:59;;;;;;;15.35;8.05;;;;;;;12.33;100.00;100979.47;4966913;28;20136;-63
2022/10/23 07:10:26;;;;;;;21.08;7.95;;;;;;;12.29;100.00;100977.97;4971550;28;20058;-63
2022/10/23 07:12:59;;;;;;;13.07;7.55;;;;;;;12.31;100.00;100970.81;4972022;28;20051;-63
2022/10/23 07:15:27;;;;;;;10.18;7.55;;;;;;;12.31;100.00;100968.19;4968815;28;20047;-64
2022/10/23 07:17:54;;;;;;;13.07;7.57;;;;;;;12.36;100.00;100974.88;4970206;28;20611;-63
2022/10/23 07:20:21;;;;;;;12.23;7.82;;;;;;;12.37;100.00;100973.91;4971155;28;20046;-63
2022/10/23 07:22:54;;;;;;;13.45;6.75;;;;;;;12.43;100.00;100975.38;4973693;28;20058;-63
2022/10/23 07:25:23;;;;;;;11.20;7.35;;;;;;;12.48;100.00;100972.44;4978274;28;20042;-63
2022/10/23 07:27:51;;;;;;;13.43;6.68;;;;;;;12.49;100.00;100974.97;4967413;28;20059;-63
2022/10/23 07:30:18;;;;;;;11.40;8.43;;;;;;;12.49;100.00;100974.13;4965293;28;20042;-63
2022/10/23 07:32:45;;;;;;;7.93;7.03;;;;;;;12.52;100.00;100980.06;4972374;28;20129;-63
2022/10/23 07:35:12;;;;;;;17.33;9.13;;;;;;;12.56;100.00;100973.66;4968457;28;20090;-63
2022/10/23 07:37:41;;;;;;;22.13;8.38;;;;;;;12.62;100.00;100972.44;4971777;28;20042;-63
2022/10/23 07:40:08;;;;;;;11.85;7.93;;;;;;;12.65;100.00;100970.47;4968425;28;20154;-63
2022/10/23 07:42:36;;;;;;;9.95;6.88;;;;;;;12.72;100.00;100972.69;4971296;28;20070;-63
2022/10/23 07:45:05;;;;;;;12.32;7.95;;;;;;;12.77;100.00;100975.91;4972097;28;20400;-63
2022/10/23 07:47:32;;;;;;;11.50;7.75;;;;;;;12.80;100.00;100979.22;4972169;28;20333;-64
2022/10/23 07:49:59;;;;;;;9.32;6.82;;;;;;;12.79;100.00;100976.66;4972517;28;20067;-64
2022/10/23 07:52:26;;;;;;;10.15;7.68;;;;;;;12.83;100.00;100971.09;4966574;28;20050;-62
2022/10/23 07:54:59;;;;;;;11.80;7.32;;;;;;;12.87;100.00;100971.72;4968064;28;20118;-62
2022/10/23 07:57:26;;;;;;;11.05;6.88;;;;;;;12.85;100.00;100974.47;4968027;28;20050;-64
2022/10/23 07:59:53;;;;;;;15.63;7.90;;;;;;;12.87;100.00;100969.09;4967901;28;20061;-63
2022/10/23 08:02:21;;;;;;;9.85;8.00;;;;;;;12.90;100.00;100969.75;4966509;28;20512;-63
2022/10/23 08:04:49;;;;;;;11.85;7.85;;;;;;;12.95;100.00;100958.88;4967171;28;20073;-62
2022/10/23 08:07:16;;;;;;;12.40;7.40;;;;;;;13.01;100.00;100960.28;4970139;28;20042;-63
2022/10/23 08:09:43;;;;;;;11.90;7.60;;;;;;;13.06;100.00;100953.78;4970102;28;20086;-63
2022/10/23 08:12:10;;;;;;;9.88;7.18;;;;;;;13.13;100.00;100959.50;4972712;28;20086;-63
2022/10/23 08:14:37;;;;;;;16.63;7.90;;;;;;;13.15;100.00;100955.84;4969031;28;20143;-63
2022/10/23 08:17:08;;;;;;;11.57;7.85;;;;;;;13.18;100.00;100963.56;4962721;28;20081;-63
2022/10/23 08:19:35;;;;;;;11.07;7.60;;;;;;;13.20;100.00;100962.63;4951528;28;20143;-64
2022/10/23 08:22:02;;;;;;;9.70;6.57;;;;;;;13.20;100.00;100963.47;4965355;28;20073;-63
2022/10/23 08:24:29;;;;;;;16.75;8.13;;;;;;;13.29;100.00;100956.78;4968146;28;20055;-64
2022/10/23 08:26:57;;;;;;;8.40;6.30;;;;;;;13.31;100.00;100958.34;4969558;28;20035;-64
2022/10/23 08:29:24;;;;;;;13.75;6.65;;;;;;;13.39;100.00;100963.16;4965023;28;20098;-64
2022/10/23 08:31:54;;;;;;;9.27;7.20;;;;;;;13.44;100.00;100966.34;4968735;28;20051;-64
2022/10/23 08:34:22;;;;;;;12.40;5.75;;;;;;;13.52;100.00;100961.41;4970003;28;20133;-63
2022/10/23 08:36:49;;;;;;;12.30;7.88;;;;;;;13.58;100.00;100970.72;4967478;28;20055;-64
2022/10/23 08:39:16;;;;;;;10.30;6.80;;;;;;;13.65;100.00;100958.81;4959673;28;20066;-64
2022/10/23 08:41:49;;;;;;;9.40;6.18;;;;;;;13.70;100.00;100959.34;4969377;28;20058;-63
2022/10/23 08:44:25;;;;;;;9.57;6.35;;;;;;;13.78;100.00;100962.31;4984670;28;20074;-64
2022/10/23 08:47:09;;;;;;;10.52;6.60;;;;;;;13.86;100.00;100956.50;4966833;28;20057;-65
2022/10/23 08:49:55;;;;;;;11.63;5.90;;;;;;;13.97;100.00;100961.09;4967715;28;20668;-63
2022/10/23 08:52:40;;;;;;;15.73;6.95;;;;;;;14.04;100.00;100957.06;4967748;28;20075;-63
2022/10/23 08:55:15;;;;;;;14.60;5.68;;;;;;;14.12;100.00;100962.69;4969680;28;20053;-63
2022/10/23 08:57:52;;;;;;;12.93;5.82;;;;;;;14.19;100.00;100962.16;4960810;28;20511;-65
2022/10/23 09:00:19;;;;;;;11.25;5.63;;;;;;;14.27;99.43;100964.25;4968347;28;20243;-64
2022/10/23 09:02:49;;;;;;;14.35;6.10;;;;;;;14.30;99.00;100961.41;4985128;28;20105;-65
2022/10/23 09:05:22;;;;;;;8.95;5.50;;;;;;;14.34;98.94;100954.09;4965388;28;20142;-65
2022/10/23 09:08:17;;;;;;;9.00;5.78;;;;;;;14.38;98.86;100961.72;4967115;28;20805;-65
2022/10/23 09:10:54;;;;;;;11.23;4.75;;;;;;;14.45;98.54;100954.19;4967863;28;20134;-65
2022/10/23 09:13:34;;;;;;;6.05;4.60;;;;;;;14.45;97.80;100959.47;4968381;28;20043;-65
2022/10/23 09:16:14;;;;;;;8.15;4.43;;;;;;;14.53;98.08;100956.34;4964121;28;20153;-65
2022/10/23 09:18:41;;;;;;;9.13;5.15;;;;;;;14.59;97.98;100953.25;4966083;28;20071;-66
2022/10/23 09:21:09;;;;;;;7.40;4.38;;;;;;;14.66;97.99;100951.88;4964816;28;20496;-65
2022/10/23 09:23:36;;;;;;;12.10;4.85;;;;;;;14.76;97.81;100954.72;4965614;28;20051;-66
2022/10/23 09:26:16;;;;;;;9.95;4.93;;;;;;;14.85;96.16;100951.41;4951768;28;20043;-65
2022/10/23 09:28:54;;;;;;;11.52;5.50;;;;;;;14.94;95.96;100940.97;4970074;28;20061;-66
2022/10/23 09:31:21;;;;;;;11.55;5.30;;;;;;;14.99;95.77;100947.75;4964293;28;20051;-65
2022/10/23 09:33:56;;;;;;;9.88;4.55;;;;;;;15.05;95.37;100945.53;4963505;28;20065;-65
2022/10/23 09:36:26;;;;;;;7.03;4.60;;;;;;;15.13;95.11;100943.19;4964227;28;20047;-65
2022/10/23 09:38:55;;;;;;;12.98;4.97;;;;;;;15.26;94.15;100950.22;4965522;28;20050;-65
2022/10/23 09:41:27;;;;;;;9.40;4.30;;;;;;;15.32;93.59;100947.97;4966176;28;20082;-65
2022/10/23 09:44:06;;;;;;;10.35;4.43;;;;;;;15.39;93.64;100951.00;4967222;28;20137;-65
2022/10/23 09:46:45;;;;;;;8.52;4.07;;;;;;;15.45;93.03;100946.09;4965491;28;20053;-65
2022/10/23 09:49:29;;;;;;;8.75;4.53;;;;;;;15.59;90.91;100949.53;4963292;28;20158;-65
2022/10/23 09:52:02;;;;;;;7.22;3.60;;;;;;;15.71;89.80;100948.63;4966236;28;20047;-65
2022/10/23 09:54:37;;;;;;;11.07;3.25;;;;;;;15.81;89.89;100947.00;4959976;28;20074;-65
2022/10/23 09:57:18;;;;;;;9.63;3.78;;;;;;;15.83;89.75;100937.09;4968406;28;20090;-66
2022/10/23 09:59:58;;;;;;;11.30;4.45;;;;;;;15.91;89.14;100949.78;4965240;28;20146;-64
2022/10/23 10:02:31;;;;;;;15.57;3.60;;;;;;;15.95;88.54;100944.13;4968198;28;20070;-66
2022/10/23 10:04:59;;;;;;;10.30;3.67;;;;;;;16.02;88.76;100941.84;4967615;28;20059;-64
2022/10/23 10:07:28;;;;;;;7.00;3.15;;;;;;;16.10;88.54;100939.44;4965148;28;20050;-64
2022/10/23 10:09:59;;;;;;;7.05;3.33;;;;;;;16.20;88.41;100936.91;4967686;28;20605;-64
2022/10/23 10:12:32;;;;;;;9.13;3.40;;;;;;;16.26;88.08;100931.16;4963373;28;20554;-65
2022/10/23 10:15:02;;;;;;;9.57;3.28;;;;;;;16.36;87.72;100933.94;4959770;28;20051;-64
2022/10/23 10:17:32;;;;;;;8.10;3.33;;;;;;;16.44;87.51;100934.19;4962679;28;20141;-64
2022/10/23 10:20:05;;;;;;;6.45;2.63;;;;;;;16.52;86.13;100926.44;4964624;28;20055;-64
2022/10/23 10:22:54;;;;;;;5.93;2.58;;;;;;;16.59;85.06;100925.00;4964281;28;20043;-65
2022/10/23 10:25:33;;;;;;;7.88;3.63;;;;;;;16.67;84.54;100922.56;4982024;28;20142;-65
2022/10/23 10:28:33;;;;;;;11.85;3.53;;;;;;;16.74;83.90;100922.09;4970301;28;20500;-65
2022/10/23 10:31:12;;;;;;;7.60;2.65;;;;;;;16.87;83.44;100913.00;4934320;28;20078;-65
2022/10/23 10:33:48;;;;;;;5.68;2.72;;;;;;;17.05;81.96;100913.34;4964162;28;20097;-65
2022/10/23 10:36:24;;;;;;;7.35;2.75;;;;;;;17.12;81.74;100911.03;4965516;28;20047;-65
2022/10/23 10:38:58;;;;;;;13.75;3.67;;;;;;;17.24;80.38;100902.03;4962031;28;20042;-64
2022/10/23 10:41:36;;;;;;;8.10;2.63;;;;;;;17.38;80.54;100901.75;4963493;28;20061;-64
2022/10/23 10:44:16;;;;;;;6.10;2.28;;;;;;;17.55;79.88;100902.13;4965652;28;20090;-64
2022/10/23 10:46:57;;;;;;;6.63;2.97;;;;;;;17.72;78.99;100902.41;4969692;28;20051;-64
2022/10/23 10:49:39;;;;;;;9.38;3.20;;;;;;;17.84;77.62;100903.25;4975749;28;20544;-64
2022/10/23 10:52:09;;;;;;;9.25;2.78;;;;;;;17.90;76.49;100904.53;4978895;28;20049;-65
2022/10/23 10:54:42;;;;;;;14.07;3.40;;;;;;;18.02;75.60;100903.47;4964007;28;20054;-64
2022/10/23 10:57:28;;;;;;;9.70;2.85;;;;;;;18.18;75.40;100895.00;4979706;28;20475;-65
2022/10/23 11:00:00;;;;;;;4.32;2.53;;;;;;;18.40;75.41;100896.63;4964017;28;20087;-65
2022/10/23 11:02:33;;;;;;;6.97;3.10;;;;;;;18.61;73.85;100891.25;4963362;28;20049;-65
2022/10/23 11:05:27;;;;;;;13.50;3.85;;;;;;;18.69;74.05;100899.47;4965671;28;20169;-65
2022/10/23 11:08:12;;;;;;;10.18;3.53;;;;;;;18.83;74.67;100879.56;4966107;28;20065;-65
2022/10/23 11:10:45;;;;;;;7.07;3.05;;;;;;;18.88;74.28;100871.97;4966266;28;20051;-65
2022/10/23 11:13:26;;;;;;;7.25;2.95;;;;;;;18.83;74.28;100869.72;4982607;28;20046;-65
2022/10/23 11:16:00;;;;;;;7.47;3.53;;;;;;;18.93;74.20;100877.75;4966741;28;20468;-65
2022/10/23 11:18:29;;;;;;;7.55;3.38;;;;;;;18.96;74.53;100874.81;4970389;28;20055;-65
2022/10/23 11:21:07;;;;;;;9.60;3.67;;;;;;;19.05;73.65;100862.44;4968553;28;20206;-65
2022/10/23 11:23:48;;;;;;;6.90;3.30;;;;;;;19.23;73.36;100864.28;4962960;28;20055;-64
2022/10/23 11:26:45;;;;;;;6.22;4.00;;;;;;;19.37;73.87;100867.53;4967269;28;20133;-64
2022/10/23 11:29:27;;;;;;;7.60;3.70;;;;;;;19.59;72.98;100845.00;4967752;28;20150;-64
2022/10/23 11:32:10;;;;;;;7.72;3.45;;;;;;;19.72;70.91;100845.56;4967325;28;20130;-65
2022/10/23 11:35:03;;;;;;;10.20;4.45;;;;;;;19.90;70.67;100841.16;4969262;28;20134;-65
2022/10/23 11:37:31;;;;;;;7.90;3.40;;;;;;;20.13;70.41;100836.31;4970278;28;20051;-65
2022/10/23 11:40:07;;;;;;;6.32;2.65;;;;;;;20.58;69.99;100832.00;4973452;28;20237;-66